createdAt,value
2018-11-22T07:16:36.995Z,76.70
2018-11-22T07:17:12.099Z,73.80
2018-11-22T07:17:47.581Z,76.70
2018-11-22T07:18:22.795Z,80.70
2018-11-22T07:18:58.189Z,77.90
2018-11-22T07:19:33.337Z,77.30
2018-11-22T07:20:08.557Z,78.40
2018-11-22T07:20:43.718Z,77.30
2018-11-22T07:21:19.100Z,82.20
2018-11-22T07:21:54.270Z,84.60
2018-11-22T07:22:29.759Z,85.70
2018-11-22T07:23:05.123Z,78.90
2018-11-22T07:23:40.334Z,80.00
2018-11-22T07:24:15.814Z,74.80
2018-11-22T07:24:51.394Z,79.80
2018-11-22T07:25:26.555Z,84.50
2018-11-22T07:26:02.051Z,81.60
2018-11-22T07:26:37.424Z,75.00
2018-11-22T07:27:12.814Z,76.40
2018-11-22T07:27:48.179Z,74.40
2018-11-22T07:28:23.876Z,73.80
2018-11-22T07:28:59.397Z,79.10
2018-11-22T07:29:34.712Z,78.40
2018-11-22T07:30:09.972Z,75.20
2018-11-22T07:30:45.276Z,73.20
2018-11-22T07:31:20.651Z,79.60
2018-11-22T07:31:55.943Z,78.30
2018-11-22T07:32:31.231Z,79.00
2018-11-22T07:33:06.823Z,73.40
2018-11-22T07:33:42.089Z,75.10
2018-11-22T07:34:17.505Z,83.20
2018-11-22T07:34:53.006Z,83.60
2018-11-22T07:35:28.317Z,80.70
2018-11-22T07:36:03.810Z,81.50
2018-11-22T07:36:39.303Z,81.10
2018-11-22T07:37:14.518Z,82.40
2018-11-22T07:37:49.822Z,80.10
2018-11-22T07:38:25.424Z,78.20
2018-11-22T07:39:00.900Z,77.80
2018-11-22T07:39:36.619Z,81.00
2018-11-22T07:40:11.805Z,80.20
2018-11-22T07:40:46.995Z,76.60
2018-11-22T07:41:22.622Z,78.10
2018-11-22T07:41:57.692Z,75.90
2018-11-22T07:42:33.186Z,81.00
2018-11-22T07:43:08.352Z,79.40
2018-11-22T07:43:43.857Z,78.50
2018-11-22T07:44:19.131Z,78.90
2018-11-22T07:44:54.663Z,74.40
2018-11-22T07:45:29.839Z,75.90
2018-11-22T07:46:05.137Z,72.90
2018-11-22T07:46:40.406Z,75.70
2018-11-22T07:47:15.703Z,81.40
2018-11-22T07:47:51.219Z,85.90
2018-11-22T07:48:26.502Z,78.20
2018-11-22T07:49:01.987Z,73.40
2018-11-22T07:49:37.278Z,75.50
2018-11-22T07:50:13.007Z,76.60
2018-11-22T07:50:48.384Z,75.50
2018-11-22T07:51:23.623Z,82.90
2018-11-22T07:51:58.699Z,81.30
2018-11-22T07:52:33.905Z,79.10
2018-11-22T07:53:09.102Z,76.50
2018-11-22T07:53:44.779Z,72.50
2018-11-22T07:54:19.972Z,76.40
2018-11-22T07:54:55.157Z,81.30
2018-11-22T07:55:30.772Z,74.30
2018-11-22T07:56:05.957Z,76.00
2018-11-22T07:56:41.379Z,79.30
2018-11-22T07:57:16.756Z,71.30
2018-11-22T07:57:52.167Z,70.70
2018-11-22T07:58:27.266Z,78.30
2018-11-22T07:59:02.944Z,77.10
2018-11-22T07:59:38.546Z,72.50
2018-11-22T08:00:13.836Z,75.30
2018-11-22T08:00:49.355Z,77.20
2018-11-22T08:01:24.529Z,77.00
2018-11-22T08:01:59.935Z,81.90
2018-11-22T08:02:35.320Z,88.00
2018-11-22T08:03:10.502Z,100.10
2018-11-22T08:03:45.962Z,95.30
2018-11-22T08:04:21.560Z,77.10
2018-11-22T08:04:57.044Z,74.80
2018-11-22T08:05:32.535Z,76.70
2018-11-22T08:06:08.147Z,77.30
2018-11-22T08:06:43.334Z,83.10
2018-11-22T08:07:18.635Z,76.30
2018-11-22T08:07:53.798Z,76.90
2018-11-22T08:08:29.114Z,77.40
2018-11-22T08:09:04.390Z,84.70
2018-11-22T08:09:39.785Z,88.60
2018-11-22T08:10:14.892Z,83.50
2018-11-22T08:10:50.211Z,76.90
2018-11-22T08:11:25.509Z,78.90
2018-11-22T08:12:00.970Z,83.20
2018-11-22T08:12:36.520Z,81.40
2018-11-22T08:13:11.871Z,78.20
2018-11-22T08:13:47.192Z,74.90
2018-11-22T08:14:22.378Z,76.30
2018-11-22T08:14:57.671Z,78.70
2018-11-22T08:15:32.942Z,73.30
2018-11-22T08:16:08.365Z,72.20
2018-11-22T08:16:43.676Z,77.10
2018-11-22T08:17:18.935Z,77.30
2018-11-22T08:17:54.334Z,78.00
2018-11-22T08:18:29.721Z,76.30
2018-11-22T08:19:05.116Z,81.60
2018-11-22T08:19:40.797Z,80.40
2018-11-22T08:20:16.193Z,74.70
2018-11-22T08:20:51.700Z,75.70
2018-11-22T08:21:27.127Z,78.00
2018-11-22T08:22:02.529Z,76.30
2018-11-22T08:22:37.812Z,69.60
2018-11-22T08:23:12.913Z,76.20
2018-11-22T08:23:48.292Z,78.60
2018-11-22T08:24:23.614Z,69.90
2018-11-22T08:24:59.099Z,69.90
2018-11-22T08:25:34.631Z,73.70
2018-11-22T08:26:10.121Z,73.40
2018-11-22T08:26:45.443Z,74.80
2018-11-22T08:27:20.682Z,75.80
2018-11-22T08:27:55.852Z,76.00
2018-11-22T08:28:31.166Z,77.90
2018-11-22T08:29:06.344Z,81.30
2018-11-22T08:29:41.859Z,77.00
2018-11-22T08:30:17.236Z,73.50
2018-11-22T08:30:52.456Z,80.80
2018-11-22T08:31:27.733Z,79.50
2018-11-22T08:32:02.959Z,76.30
2018-11-22T08:32:38.030Z,75.70
2018-11-22T08:33:13.324Z,72.10
2018-11-22T08:33:48.628Z,70.50
2018-11-22T08:34:23.915Z,66.70
2018-11-22T08:34:59.507Z,69.50
2018-11-22T08:35:34.819Z,67.50
2018-11-22T08:36:10.316Z,73.50
2018-11-22T08:36:46.108Z,79.80
2018-11-22T08:37:21.447Z,77.20
2018-11-22T08:37:56.535Z,74.10
2018-11-22T08:38:31.929Z,78.40
2018-11-22T08:39:07.101Z,73.10
2018-11-22T08:39:42.688Z,71.90
2018-11-22T08:40:18.084Z,74.60
2018-11-22T08:40:53.374Z,78.70
2018-11-22T08:41:28.969Z,75.90
2018-11-22T08:42:04.653Z,81.00
2018-11-22T08:42:40.287Z,85.70
2018-11-22T08:43:15.656Z,77.40
2018-11-22T08:43:50.952Z,79.50
2018-11-22T08:44:26.451Z,79.60
2018-11-22T08:45:02.045Z,75.40
2018-11-22T08:45:37.329Z,74.90
2018-11-22T08:46:12.701Z,77.20
2018-11-22T08:46:47.993Z,77.20
2018-11-22T08:47:23.178Z,77.00
2018-11-22T08:47:58.826Z,80.00
2018-11-22T08:48:34.301Z,86.40
2018-11-22T08:49:09.806Z,79.60
2018-11-22T08:49:44.993Z,70.60
2018-11-22T08:50:20.300Z,68.50
2018-11-22T08:50:55.571Z,74.10
2018-11-22T08:51:30.992Z,77.40
2018-11-22T08:52:06.595Z,73.30
2018-11-22T08:52:42.079Z,68.10
2018-11-22T08:53:17.609Z,70.40
2018-11-22T08:53:52.893Z,75.00
2018-11-22T08:54:28.491Z,72.00
2018-11-22T08:55:03.858Z,73.00
2018-11-22T08:55:38.954Z,72.00
2018-11-22T08:56:14.142Z,71.20
2018-11-22T08:56:49.728Z,73.50
2018-11-22T08:57:25.029Z,74.60
2018-11-22T08:58:00.509Z,75.10
2018-11-22T08:58:35.835Z,75.40
2018-11-22T08:59:11.112Z,75.30
2018-11-22T08:59:46.420Z,74.60
2018-11-22T09:00:21.612Z,68.80
2018-11-22T09:00:57.203Z,72.10
2018-11-22T09:01:32.772Z,72.50
2018-11-22T09:02:07.872Z,75.30
2018-11-22T09:02:45.454Z,78.00
2018-11-22T09:03:18.741Z,74.90
2018-11-22T09:03:54.213Z,73.40
2018-11-22T09:04:50.695Z,74.80
2018-11-22T09:05:25.899Z,71.50
2018-11-22T09:06:01.394Z,68.40
2018-11-22T09:06:36.902Z,73.40
2018-11-22T09:07:12.169Z,72.10
2018-11-22T09:07:47.597Z,75.30
2018-11-22T09:08:23.098Z,76.20
2018-11-22T09:08:58.708Z,68.40
2018-11-22T09:09:33.929Z,67.20
2018-11-22T09:10:09.405Z,67.40
2018-11-22T09:10:45.023Z,66.50
2018-11-22T09:11:20.302Z,69.40
2018-11-22T09:11:55.607Z,70.50
2018-11-22T09:12:30.884Z,66.00
2018-11-22T09:13:06.199Z,65.20
2018-11-22T09:13:41.786Z,68.80
2018-11-22T09:14:17.211Z,69.00
2018-11-22T09:14:52.835Z,69.80
2018-11-22T09:15:31.340Z,69.20
2018-11-22T09:16:03.606Z,68.80
2018-11-22T09:16:38.779Z,68.20
2018-11-22T09:17:14.091Z,71.30
2018-11-22T09:17:49.373Z,71.90
2018-11-22T09:18:25.084Z,66.30
2018-11-22T09:19:00.267Z,69.10
2018-11-22T09:19:35.698Z,66.30
2018-11-22T09:20:11.201Z,67.10
2018-11-22T09:20:46.583Z,73.00
2018-11-22T09:21:22.089Z,70.80
2018-11-22T09:21:57.461Z,66.60
2018-11-22T09:22:32.894Z,66.40
2018-11-22T09:23:08.556Z,70.60
2018-11-22T09:23:43.949Z,69.30
2018-11-22T09:24:24.130Z,64.70
2018-11-22T09:24:54.884Z,66.60
2018-11-22T09:25:29.982Z,69.30
2018-11-22T09:26:05.594Z,72.70
2018-11-22T09:26:40.861Z,69.60
2018-11-22T09:27:16.064Z,64.80
2018-11-22T09:27:51.357Z,65.60
2018-11-22T09:28:27.392Z,64.30
2018-11-22T09:29:01.740Z,62.90
2018-11-22T09:29:39.555Z,65.60
2018-11-22T09:30:12.777Z,62.50
2018-11-22T09:30:47.875Z,60.60
2018-11-22T09:31:23.348Z,63.00
2018-11-22T09:31:58.754Z,66.20
2018-11-22T09:32:34.084Z,64.90
2018-11-22T09:33:09.363Z,62.80
